Time;durP1;ratioP1;P1;durP2;ratioP2;P2;SDS_P1;SDS_P2;PMS_P1;PMS_P2;Temp;Humidity;BMP_temperature;BMP_pressure;BME280_temperature;BME280_humidity;BME280_pressure;Samples;Min_cycle;Max_cycle;Signal;HPM_P1;HPM_P2
2021/08/25 00:01:42;;;;;;;;;0.00;0.00;;;;;25.85;35.54;101473.53;5074569;28;45465;-71
2021/08/25 00:04:08;;;;;;;;;1.67;1.00;;;;;25.84;35.40;101466.31;5074811;28;45595;-71
2021/08/25 00:06:33;;;;;;;;;1.00;1.00;;;;;25.84;35.40;101466.31;5074684;28;45475;-71
2021/08/25 00:08:58;;;;;;;;;1.00;1.00;;;;;25.84;35.30;101472.66;5074160;28;45746;-71
2021/08/25 00:11:24;;;;;;;;;1.00;1.00;;;;;25.86;35.47;101475.34;5074141;28;45521;-71
2021/08/25 00:13:50;;;;;;;;;0.67;0.67;;;;;25.82;35.45;101462.78;5074255;28;45378;-71
2021/08/25 00:16:16;;;;;;;;;0.00;0.00;;;;;25.84;35.62;101466.31;5074784;28;45457;-71
2021/08/25 00:18:42;;;;;;;;;0.33;0.33;;;;;25.81;35.66;101456.41;5054491;28;47074;-71
2021/08/25 00:21:07;;;;;;;;;0.33;0.33;;;;;25.84;35.19;101461.75;5071408;28;45768;-71
2021/08/25 00:23:33;;;;;;;;;0.33;0.33;;;;;25.85;35.52;101454.47;5068564;28;45479;-71
2021/08/25 00:25:58;;;;;;;;;1.00;0.67;;;;;25.85;35.60;101446.28;5071912;28;45442;-69
2021/08/25 00:28:25;;;;;;;;;1.00;1.00;;;;;25.85;35.61;101457.19;5071584;28;45685;-69
2021/08/25 00:30:50;;;;;;;;;0.67;0.67;;;;;25.85;35.44;101447.16;5071737;28;45501;-70
2021/08/25 00:33:16;;;;;;;;;1.00;1.00;;;;;25.85;35.51;101451.75;5071729;28;45489;-70
2021/08/25 00:35:41;;;;;;;;;1.00;1.00;;;;;25.85;35.57;101443.56;5071741;28;45517;-70
2021/08/25 00:38:08;;;;;;;;;0.33;0.33;;;;;25.84;35.60;101447.25;5071795;28;46513;-70
2021/08/25 00:40:34;;;;;;;;;0.33;0.33;;;;;25.81;35.70;101441.91;5072799;28;45461;-70
2021/08/25 00:43:06;;;;;;;;;1.00;1.00;;;;;25.82;35.63;101458.19;5074082;28;45574;-70
2021/08/25 00:45:53;;;;;;;;;0.00;0.00;;;;;25.80;35.91;101448.31;5074163;28;45467;-70
2021/08/25 00:48:18;;;;;;;;;2.00;0.67;;;;;25.80;36.19;101449.19;5073511;28;45532;-70
2021/08/25 00:50:53;;;;;;;;;0.00;0.00;;;;;25.81;35.69;101444.63;5073991;28;45440;-70
2021/08/25 00:53:22;;;;;;;;;1.00;1.00;;;;;25.79;36.00;101450.13;5074038;28;45503;-70
2021/08/25 00:55:48;;;;;;;;;0.00;0.00;;;;;25.77;35.65;101437.53;5074663;28;45835;-70
2021/08/25 00:58:14;;;;;;;;;0.00;0.00;;;;;25.80;35.81;101437.41;5073792;28;45418;-70
2021/08/25 01:00:54;;;;;;;;;1.00;1.00;;;;;25.78;35.89;101439.31;5074068;28;45725;-70
2021/08/25 01:03:31;;;;;;;;;1.33;1.33;;;;;25.77;35.89;101446.56;5073931;27;45543;-70
2021/08/25 01:05:57;;;;;;;;;0.00;0.00;;;;;25.74;36.16;101439.41;5074267;28;45390;-70
2021/08/25 01:08:24;;;;;;;;;0.67;0.67;;;;;25.75;35.96;101435.75;5073983;28;45479;-70
2021/08/25 01:10:49;;;;;;;;;0.67;0.67;;;;;25.74;36.23;101433.97;5073676;28;45362;-70
2021/08/25 01:13:15;;;;;;;;;0.00;0.00;;;;;25.74;35.94;101439.41;5074665;28;45657;-70
2021/08/25 01:15:43;;;;;;;;;1.33;0.00;;;;;25.73;35.79;101436.75;5077708;28;45439;-70
2021/08/25 01:18:13;;;;;;;;;0.67;0.67;;;;;25.71;35.85;101427.75;5058593;28;46606;-70
2021/08/25 01:20:41;;;;;;;;;2.33;1.33;;;;;25.69;36.09;101429.63;5076976;28;45698;-70
2021/08/25 01:23:06;;;;;;;;;1.67;1.67;;;;;25.70;36.27;101431.44;5075553;28;45427;-70
2021/08/25 01:25:33;;;;;;;;;0.33;0.33;;;;;25.67;35.89;101427.00;5074848;28;45557;-70
2021/08/25 01:28:03;;;;;;;;;1.00;1.00;;;;;25.68;35.93;101428.75;5074275;28;46014;-70
2021/08/25 01:30:32;;;;;;;;;1.00;1.00;;;;;25.68;36.07;101425.16;5076994;28;45555;-70
2021/08/25 01:32:59;;;;;;;;;3.00;3.00;;;;;25.66;36.30;101430.66;5077064;28;45454;-70
2021/08/25 01:35:38;;;;;;;;;1.00;1.00;;;;;25.64;36.26;101431.66;5077233;28;45474;-70
2021/08/25 01:38:05;;;;;;;;;1.67;1.00;;;;;25.62;36.34;101418.09;5076588;28;46524;-70
2021/08/25 01:40:34;;;;;;;;;1.00;1.00;;;;;25.64;36.16;101426.22;5075155;28;45464;-70
2021/08/25 01:43:00;;;;;;;;;2.33;1.67;;;;;25.63;35.92;101430.78;5077022;28;45610;-70
2021/08/25 01:45:26;;;;;;;;;2.00;1.33;;;;;25.65;36.06;101428.88;5076964;28;45429;-70
2021/08/25 01:47:51;;;;;;;;;0.00;0.00;;;;;25.65;36.16;101428.88;5058068;28;48290;-70
2021/08/25 01:50:20;;;;;;;;;0.00;0.00;;;;;25.66;36.36;101425.19;5058453;28;45419;-70
2021/08/25 01:52:45;;;;;;;;;0.00;0.00;;;;;25.64;36.32;101420.75;5076332;28;45491;-70
2021/08/25 01:55:11;;;;;;;;;0.33;0.33;;;;;25.65;36.30;101423.44;5076685;28;45576;-70
2021/08/25 01:57:36;;;;;;;;;0.00;0.00;;;;;25.65;36.24;101423.44;5076497;28;45487;-70
2021/08/25 02:00:04;;;;;;;;;0.33;0.33;;;;;25.66;36.06;101424.31;5076431;28;45462;-70
2021/08/25 02:02:30;;;;;;;;;0.33;0.33;;;;;25.64;36.00;101418.03;5058247;28;45449;-70
2021/08/25 02:04:56;;;;;;;;;0.00;0.00;;;;;25.65;36.01;101417.06;5077095;28;45453;-70
2021/08/25 02:07:21;;;;;;;;;1.00;1.00;;;;;25.64;36.18;101418.91;5076496;28;45372;-70
2021/08/25 02:09:46;;;;;;;;;0.00;0.00;;;;;25.62;36.18;101412.66;5076461;28;45434;-70
2021/08/25 02:12:12;;;;;;;;;0.00;0.00;;;;;25.65;36.19;101412.53;5076438;28;45409;-70
2021/08/25 02:14:37;;;;;;;;;0.67;0.67;;;;;25.64;36.23;101412.59;5076541;28;45464;-71
2021/08/25 02:17:06;;;;;;;;;0.00;0.00;;;;;25.64;36.34;101407.16;5057815;28;47529;-70
2021/08/25 02:19:31;;;;;;;;;1.00;1.00;;;;;25.61;36.53;101405.44;5058046;28;45505;-70
2021/08/25 02:21:57;;;;;;;;;1.67;0.67;;;;;25.62;36.28;101401.75;5057896;28;45480;-70
2021/08/25 02:24:22;;;;;;;;;0.67;0.33;;;;;25.60;36.27;101402.75;5075768;28;45450;-70
2021/08/25 02:26:47;;;;;;;;;0.00;0.00;;;;;25.61;36.15;101396.34;5075592;28;45762;-70
2021/08/25 02:29:13;;;;;;;;;0.00;0.00;;;;;25.63;36.38;101402.63;5054422;28;45537;-70
2021/08/25 02:31:38;;;;;;;;;0.33;0.33;;;;;25.61;36.06;101402.72;5057165;28;45592;-70
2021/08/25 02:34:04;;;;;;;;;0.33;0.33;;;;;25.61;36.39;101405.44;5075958;28;45479;-70
2021/08/25 02:36:29;;;;;;;;;0.33;0.33;;;;;25.60;36.33;101402.75;5075254;28;46179;-70
2021/08/25 02:38:54;;;;;;;;;1.67;1.67;;;;;25.59;36.49;101400.97;5075130;28;44925;-69
2021/08/25 02:41:21;;;;;;;;;1.00;1.00;;;;;25.57;36.27;101405.59;5051297;28;45450;-70
2021/08/25 02:43:47;;;;;;;;;0.00;0.00;;;;;25.57;36.40;101398.28;5053246;28;45395;-70
2021/08/25 02:46:13;;;;;;;;;1.00;0.33;;;;;25.54;36.63;101398.44;5052891;28;46231;-70
2021/08/25 02:48:38;;;;;;;;;1.00;1.00;;;;;25.56;36.65;101399.25;5051173;28;45484;-70
2021/08/25 02:51:04;;;;;;;;;0.00;0.00;;;;;25.54;36.54;101406.59;5053280;28;45699;-70
2021/08/25 02:53:29;;;;;;;;;0.00;0.00;;;;;25.53;36.56;101394.81;5053072;28;45552;-70
2021/08/25 02:55:56;;;;;;;;;0.00;0.00;;;;;25.53;36.68;101399.34;5052582;28;45546;-70
2021/08/25 02:58:21;;;;;;;;;0.00;0.00;;;;;25.53;36.53;101397.56;5052695;28;45472;-70
2021/08/25 03:00:46;;;;;;;;;1.33;1.33;;;;;25.51;36.47;101398.53;5052458;28;45388;-70
2021/08/25 03:03:12;;;;;;;;;1.00;1.00;;;;;25.52;36.88;101393.03;5051261;28;45509;-70
2021/08/25 03:05:38;;;;;;;;;1.00;0.33;;;;;25.53;36.82;101399.34;5052882;28;46292;-70
2021/08/25 03:08:05;;;;;;;;;0.33;0.33;;;;;25.51;36.79;101395.81;5051019;28;45391;-70
2021/08/25 03:10:31;;;;;;;;;0.00;0.00;;;;;25.49;36.55;101392.25;5052462;28;45417;-70
2021/08/25 03:12:56;;;;;;;;;0.00;0.00;;;;;25.51;36.78;101396.72;5052840;28;45405;-70
2021/08/25 03:15:21;;;;;;;;;0.67;0.67;;;;;25.51;36.67;101390.34;5050813;28;47183;-70
2021/08/25 03:17:47;;;;;;;;;0.00;0.00;;;;;25.48;36.61;101385.03;5052483;28;45398;-70
2021/08/25 03:20:12;;;;;;;;;0.00;0.00;;;;;25.49;36.52;101386.81;5051097;28;45470;-71
2021/08/25 03:22:39;;;;;;;;;0.00;0.00;;;;;25.54;36.78;101392.97;5051117;28;45553;-70
2021/08/25 03:25:07;;;;;;;;;2.00;0.00;;;;;25.49;36.40;101387.72;5052269;28;45710;-70
2021/08/25 03:27:32;;;;;;;;;0.00;0.00;;;;;25.52;36.52;101395.75;5050686;28;45832;-70
2021/08/25 03:29:58;;;;;;;;;0.33;0.33;;;;;25.53;37.01;101383.94;5052475;28;45707;-70
2021/08/25 03:32:23;;;;;;;;;0.00;0.00;;;;;25.47;36.74;101370.53;5052652;28;44969;-70
2021/08/25 03:34:49;;;;;;;;;0.00;0.00;;;;;25.53;36.59;101388.47;5051940;28;45951;-70
2021/08/25 03:37:14;;;;;;;;;0.33;0.33;;;;;25.53;36.71;101383.00;5052008;28;45832;-69
2021/08/25 03:39:40;;;;;;;;;2.67;1.67;;;;;25.48;36.66;101377.75;5050791;28;45484;-70
2021/08/25 03:42:08;;;;;;;;;0.33;0.33;;;;;25.50;36.92;101389.47;5069969;28;45433;-70
2021/08/25 03:44:37;;;;;;;;;0.00;0.00;;;;;25.51;36.79;101394.00;5053697;28;46576;-70
2021/08/25 03:47:05;;;;;;;;;0.00;0.00;;;;;25.53;36.47;101391.19;5072406;28;45833;-70
2021/08/25 03:49:31;;;;;;;;;0.00;0.00;;;;;25.52;36.79;101386.69;5072271;28;45408;-70
2021/08/25 03:51:56;;;;;;;;;1.00;0.00;;;;;25.52;36.78;101389.44;5072958;28;45429;-70
2021/08/25 03:54:22;;;;;;;;;0.00;0.00;;;;;25.52;36.81;101390.31;5074748;28;46166;-70
2021/08/25 03:56:47;;;;;;;;;0.00;0.00;;;;;25.51;36.71;101383.09;5074865;28;45705;-70
2021/08/25 03:59:12;;;;;;;;;0.00;0.00;;;;;25.52;36.79;101387.59;5056399;28;45336;-70
2021/08/25 04:01:38;;;;;;;;;0.33;0.33;;;;;25.52;36.79;101392.16;5075052;28;45390;-70
2021/08/25 04:04:06;;;;;;;;;0.00;0.00;;;;;25.51;36.73;101384.91;5074394;28;45404;-70
2021/08/25 04:06:33;;;;;;;;;0.33;0.33;;;;;25.52;36.99;101386.69;5074684;28;44917;-70
2021/08/25 04:08:58;;;;;;;;;0.00;0.00;;;;;25.49;36.83;101379.56;5074982;28;45521;-70
2021/08/25 04:11:24;;;;;;;;;0.00;0.00;;;;;25.50;36.96;101391.31;5056000;28;45359;-69
2021/08/25 04:13:49;;;;;;;;;0.00;0.00;;;;;25.49;37.15;101381.34;5071580;28;46644;-70
2021/08/25 04:16:14;;;;;;;;;0.33;0.33;;;;;25.50;37.04;101392.19;5053558;28;45618;-70
2021/08/25 04:18:40;;;;;;;;;0.67;0.00;;;;;25.47;36.81;101386.88;5072258;28;45465;-70
2021/08/25 04:21:05;;;;;;;;;0.00;0.00;;;;;25.49;36.81;101384.09;5072266;28;45366;-70
2021/08/25 04:23:39;;;;;;;;;0.00;0.00;;;;;25.52;36.92;101387.59;5050032;28;48149;-70
2021/08/25 04:26:04;;;;;;;;;0.00;0.00;;;;;25.50;36.93;101380.44;5071485;28;45416;-70
2021/08/25 04:28:29;;;;;;;;;0.00;0.00;;;;;25.52;37.07;101379.41;5071905;28;45402;-70
2021/08/25 04:30:55;;;;;;;;;0.00;0.00;;;;;25.51;37.03;101379.47;5053813;28;45509;-70
2021/08/25 04:33:20;;;;;;;;;0.00;0.00;;;;;25.51;37.17;101371.28;5071469;28;46156;-70
2021/08/25 04:35:46;;;;;;;;;0.00;0.00;;;;;25.50;37.03;101374.97;5053217;28;45704;-70
2021/08/25 04:38:11;;;;;;;;;0.00;0.00;;;;;25.52;36.90;101378.53;5071851;28;45009;-70
2021/08/25 04:40:43;;;;;;;;;0.00;0.00;;;;;25.49;37.40;101379.56;5070776;28;45523;-70
2021/08/25 04:43:09;;;;;;;;;0.00;0.00;;;;;25.51;37.21;101382.19;5052864;28;47890;-70
2021/08/25 04:45:38;;;;;;;;;0.00;0.00;;;;;25.51;36.85;101385.81;5071279;28;45452;-70
2021/08/25 04:48:03;;;;;;;;;0.00;0.00;;;;;25.51;36.79;101383.09;5053378;28;45517;-70
2021/08/25 04:50:28;;;;;;;;;0.00;0.00;;;;;25.50;37.38;101373.13;5074974;28;45472;-70
2021/08/25 04:52:54;;;;;;;;;0.00;0.00;;;;;25.52;37.02;101379.41;5074698;28;46044;-70
2021/08/25 04:55:19;;;;;;;;;0.00;0.00;;;;;25.53;37.29;101380.28;5075211;28;45485;-70
2021/08/25 04:57:45;;;;;;;;;0.00;0.00;;;;;25.53;36.87;101380.28;5077831;28;45692;-70
2021/08/25 05:00:10;;;;;;;;;0.00;0.00;;;;;25.54;36.88;101387.53;5059238;28;45658;-71
2021/08/25 05:02:36;;;;;;;;;0.00;0.00;;;;;25.54;37.08;101382.09;5076050;27;46414;-70
2021/08/25 05:05:02;;;;;;;;;0.00;0.00;;;;;25.55;36.92;101383.84;5074662;28;45478;-70
2021/08/25 05:07:27;;;;;;;;;0.00;0.00;;;;;25.54;36.93;101379.38;5075059;28;45362;-70
2021/08/25 05:09:53;;;;;;;;;0.00;0.00;;;;;25.54;36.93;101382.97;5075105;28;45758;-70
2021/08/25 05:12:21;;;;;;;;;0.00;0.00;;;;;25.52;36.74;101382.13;5074714;28;45539;-70
2021/08/25 05:14:46;;;;;;;;;0.00;0.00;;;;;25.52;37.11;101375.81;5056241;28;45800;-70
2021/08/25 05:17:12;;;;;;;;;0.00;0.00;;;;;25.49;37.03;101373.19;5075012;28;45388;-70
2021/08/25 05:19:37;;;;;;;;;0.00;0.00;;;;;25.51;36.94;101374.03;5074890;28;45434;-70
2021/08/25 05:22:03;;;;;;;;;0.00;0.00;;;;;25.52;36.79;101389.44;5055925;28;46326;-70
2021/08/25 05:24:28;;;;;;;;;0.00;0.00;;;;;25.51;37.07;101384.91;5074624;28;45513;-70
2021/08/25 05:26:55;;;;;;;;;0.00;0.00;;;;;25.49;37.08;101384.09;5074511;28;45653;-70
2021/08/25 05:29:20;;;;;;;;;0.00;0.00;;;;;25.49;37.06;101394.97;5075622;28;45464;-70
2021/08/25 05:31:45;;;;;;;;;0.00;0.00;;;;;25.48;37.13;101387.78;5077044;28;45773;-70
2021/08/25 05:34:12;;;;;;;;;0.00;0.00;;;;;25.47;37.13;101384.16;5058415;28;45470;-70
2021/08/25 05:36:39;;;;;;;;;0.00;0.00;;;;;25.49;37.26;101381.34;5077210;28;45546;-70
2021/08/25 05:39:04;;;;;;;;;0.33;0.00;;;;;25.48;37.27;101380.47;5058630;28;45422;-71
2021/08/25 05:41:30;;;;;;;;;0.00;0.00;;;;;25.50;37.14;101385.88;5054787;28;47499;-70
2021/08/25 05:43:55;;;;;;;;;0.00;0.00;;;;;25.49;37.08;101386.81;5054881;28;45550;-70
2021/08/25 05:46:21;;;;;;;;;0.00;0.00;;;;;25.49;37.12;101389.53;5056572;28;45761;-70
2021/08/25 05:48:47;;;;;;;;;0.00;0.00;;;;;25.47;37.31;101378.72;5056681;28;45369;-70
2021/08/25 05:51:13;;;;;;;;;0.00;0.00;;;;;25.52;37.31;101383.97;5056041;28;46612;-70
2021/08/25 05:53:38;;;;;;;;;0.00;0.00;;;;;25.53;37.41;101380.28;5054043;28;45449;-70
2021/08/25 05:56:04;;;;;;;;;1.00;0.00;;;;;25.57;37.22;101391.97;5054149;28;45615;-70
2021/08/25 05:58:29;;;;;;;;;0.00;0.00;;;;;25.55;37.57;101381.13;5053966;28;45574;-70
2021/08/25 06:00:55;;;;;;;;;0.00;0.00;;;;;25.59;37.32;101390.94;5051813;28;45432;-70
2021/08/25 06:03:20;;;;;;;;;0.00;0.00;;;;;25.59;37.17;101395.53;5056016;28;45472;-70
2021/08/25 06:05:45;;;;;;;;;0.00;0.00;;;;;25.60;37.19;101395.47;5056064;28;45557;-71
2021/08/25 06:08:11;;;;;;;;;0.00;0.00;;;;;25.64;37.47;101394.41;5058901;28;45481;-70
2021/08/25 06:10:37;;;;;;;;;0.00;0.00;;;;;25.65;37.30;101404.38;5059478;28;46172;-70
2021/08/25 06:13:03;;;;;;;;;2.67;2.67;;;;;25.63;37.15;101409.00;5059574;28;45835;-66
2021/08/25 06:15:28;;;;;;;;;6.33;6.33;;;;;25.45;36.96;101394.22;5057491;28;45361;-66
2021/08/25 06:17:54;;;;;;;;;5.67;5.67;;;;;25.31;37.25;101397.47;5056314;28;45534;-66
2021/08/25 06:20:19;;;;;;;;;7.33;7.33;;;;;25.15;37.10;101390.78;5054325;28;48373;-65
2021/08/25 06:22:45;;;;;;;;;4.67;4.00;;;;;25.01;37.24;101394.00;5056671;28;45441;-66
2021/08/25 06:25:11;;;;;;;;;8.00;6.00;;;;;24.88;37.40;101398.94;5057850;28;45341;-66
2021/08/25 06:27:37;;;;;;;;;7.00;6.00;;;;;24.76;37.55;101393.94;5057008;28;45514;-66
2021/08/25 06:30:04;;;;;;;;;6.00;4.33;;;;;24.65;37.72;101396.16;5056344;28;46103;-66
2021/08/25 06:32:29;;;;;;;;;4.00;4.00;;;;;24.54;37.96;101391.97;5045132;28;45429;-66
2021/08/25 06:34:56;;;;;;;;;10.33;10.33;;;;;24.56;38.41;101397.34;5036244;28;45448;-66
2021/08/25 06:37:21;;;;;;;;;10.33;10.33;;;;;24.52;38.40;101403.81;5036295;28;45456;-66
2021/08/25 06:39:47;;;;;;;;;9.67;8.67;;;;;24.47;37.98;101397.63;5037718;28;45453;-66
2021/08/25 06:42:12;;;;;;;;;9.33;9.33;;;;;24.40;38.54;101391.53;5053622;28;45577;-67
2021/08/25 06:44:39;;;;;;;;;8.67;8.67;;;;;24.34;38.43;101402.59;5057761;28;45555;-67
2021/08/25 06:47:05;;;;;;;;;8.67;8.67;;;;;24.25;38.36;101400.16;5057955;28;45433;-66
2021/08/25 06:49:31;;;;;;;;;9.00;9.00;;;;;24.17;38.43;101398.56;5038452;28;45457;-66
2021/08/25 06:51:56;;;;;;;;;8.33;8.33;;;;;24.11;38.61;101403.31;5071899;28;45411;-67
2021/08/25 06:54:22;;;;;;;;;10.00;10.00;;;;;24.00;38.66;101398.25;5076382;28;45413;-66
2021/08/25 06:56:47;;;;;;;;;12.00;9.00;;;;;24.00;38.89;101410.94;5059513;28;45528;-66
2021/08/25 06:59:14;;;;;;;;;9.00;8.33;;;;;23.98;38.95;101413.69;5076533;28;46534;-66
2021/08/25 07:01:39;;;;;;;;;7.33;7.33;;;;;23.93;39.34;101411.09;5075413;27;45393;-67
2021/08/25 07:04:05;;;;;;;;;11.00;9.00;;;;;23.91;39.37;101414.81;5075405;28;45893;-67
2021/08/25 07:06:30;;;;;;;;;7.67;7.67;;;;;23.88;38.84;101412.22;5075646;28;45385;-66
2021/08/25 07:08:55;;;;;;;;;6.00;6.00;;;;;23.86;39.21;101412.25;5075365;28;46256;-66
2021/08/25 07:11:21;;;;;;;;;8.33;8.33;;;;;23.82;39.14;101420.56;5056331;28;45458;-66
2021/08/25 07:13:46;;;;;;;;;7.33;7.00;;;;;23.79;39.48;101407.03;5075820;28;45454;-67
2021/08/25 07:16:14;;;;;;;;;8.33;8.33;;;;;23.78;39.13;101405.28;5076512;28;45417;-67
2021/08/25 07:18:41;;;;;;;;;8.00;7.00;;;;;23.73;39.20;101406.28;5075896;28;46981;-66
2021/08/25 07:21:06;;;;;;;;;7.33;5.67;;;;;23.71;39.03;101408.16;5075520;28;45401;-66
2021/08/25 07:23:33;;;;;;;;;10.00;8.00;;;;;23.67;39.20;101408.25;5075187;28;45487;-66
2021/08/25 07:25:58;;;;;;;;;9.00;9.00;;;;;23.57;39.01;101404.94;5075520;28;45713;-66
2021/08/25 07:28:24;;;;;;;;;5.67;5.67;;;;;23.50;39.67;101400.63;5075209;28;45017;-67
2021/08/25 07:30:49;;;;;;;;;9.00;9.00;;;;;23.45;39.99;101399.84;5075092;28;45514;-66
2021/08/25 07:33:16;;;;;;;;;10.33;8.67;;;;;23.36;39.64;101399.19;5075201;28;45503;-66
2021/08/25 07:35:46;;;;;;;;;7.33;7.33;;;;;23.27;39.79;101395.84;5075007;28;45489;-66
2021/08/25 07:38:12;;;;;;;;;7.00;7.00;;;;;23.23;39.79;101400.50;5074991;28;45397;-66
2021/08/25 07:40:38;;;;;;;;;8.33;8.33;;;;;23.19;40.20;101403.31;5074248;28;45473;-66
2021/08/25 07:43:04;;;;;;;;;6.67;5.00;;;;;23.17;40.37;101408.81;5056489;28;45473;-67
2021/08/25 07:45:30;;;;;;;;;6.67;6.67;;;;;23.16;40.48;101398.88;5056911;28;45730;-67
2021/08/25 07:47:56;;;;;;;;;8.00;6.00;;;;;23.20;40.24;101403.28;5074629;28;45882;-67
2021/08/25 07:50:21;;;;;;;;;6.00;6.00;;;;;23.24;40.31;101399.53;5072797;28;45464;-67
2021/08/25 07:52:47;;;;;;;;;10.00;8.00;;;;;23.23;40.40;101395.06;5075044;28;45496;-69
2021/08/25 07:55:12;;;;;;;;;7.00;7.00;;;;;23.16;40.72;101394.31;5057193;28;45408;-68
2021/08/25 07:57:38;;;;;;;;;6.00;6.00;;;;;23.13;40.54;101388.13;5075195;28;46061;-68
2021/08/25 08:00:05;;;;;;;;;8.00;8.00;;;;;23.14;40.93;101396.19;5075017;28;45556;-68
2021/08/25 08:02:34;;;;;;;;;8.00;8.00;;;;;23.12;40.37;101397.19;5056583;28;45502;-68
2021/08/25 08:04:59;;;;;;;;;10.00;8.00;;;;;23.04;40.48;101391.94;5075170;28;45766;-67
2021/08/25 08:07:25;;;;;;;;;8.00;8.00;;;;;22.95;41.11;101390.34;5075187;28;45485;-67
2021/08/25 08:09:50;;;;;;;;;8.33;8.33;;;;;22.89;40.96;101395.06;5074827;28;45402;-68
2021/08/25 08:12:16;;;;;;;;;9.67;9.67;;;;;22.80;41.38;101384.44;5074822;28;45482;-67
2021/08/25 08:14:41;;;;;;;;;7.67;7.33;;;;;22.77;41.39;101383.59;5074642;28;45486;-67
2021/08/25 08:17:07;;;;;;;;;7.67;7.67;;;;;22.84;41.58;101389.75;5074685;28;46435;-68
2021/08/25 08:19:33;;;;;;;;;5.33;4.33;;;;;22.89;41.15;101384.22;5074805;28;45502;-68
2021/08/25 08:22:01;;;;;;;;;7.00;7.00;;;;;22.90;41.51;101378.72;5056099;28;45527;-69
2021/08/25 08:24:28;;;;;;;;;8.00;8.00;;;;;22.92;41.66;101371.44;5077225;28;45432;-68
2021/08/25 08:26:53;;;;;;;;;6.67;6.33;;;;;23.01;41.63;101369.44;5078123;28;46134;-68
2021/08/25 08:29:19;;;;;;;;;8.00;8.00;;;;;23.04;41.57;101366.66;5056399;28;45488;-67
2021/08/25 08:31:45;;;;;;;;;5.67;5.67;;;;;23.13;41.13;101371.84;5077940;28;45531;-67
2021/08/25 08:34:10;;;;;;;;;10.33;8.67;;;;;23.13;41.52;101367.28;5077937;28;45420;-67
2021/08/25 08:36:37;;;;;;;;;9.00;7.67;;;;;23.17;40.96;101368.09;5077830;28;46190;-68
2021/08/25 08:39:03;;;;;;;;;7.67;7.67;;;;;23.28;40.93;101375.94;5077755;28;45429;-67
2021/08/25 08:41:29;;;;;;;;;7.33;6.33;;;;;23.33;41.29;101366.72;5077011;28;45468;-67
2021/08/25 08:43:56;;;;;;;;;8.67;8.67;;;;;23.37;41.15;101375.69;5059989;28;45721;-69
2021/08/25 08:46:23;;;;;;;;;7.67;7.67;;;;;23.33;41.26;101369.44;5058865;28;47656;-69
2021/08/25 08:48:55;;;;;;;;;6.67;6.67;;;;;23.28;41.49;101371.38;5059577;28;45169;-67
2021/08/25 08:51:24;;;;;;;;;8.33;7.00;;;;;23.33;40.96;101373.97;5078401;28;45393;-67
2021/08/25 08:53:52;;;;;;;;;7.67;7.33;;;;;23.37;41.15;101370.25;5070662;28;45370;-67
2021/08/25 08:56:18;;;;;;;;;6.67;6.67;;;;;23.36;41.21;101366.63;5064607;28;46087;-67
2021/08/25 08:58:44;;;;;;;;;10.00;10.00;;;;;23.38;41.20;101371.13;5057330;28;45386;-67
2021/08/25 09:01:10;;;;;;;;;10.33;9.00;;;;;23.42;41.14;101372.81;5038581;28;45927;-67
2021/08/25 09:03:39;;;;;;;;;8.33;8.33;;;;;23.48;41.10;101373.53;5057717;28;45386;-67
2021/08/25 09:06:06;;;;;;;;;9.33;9.33;;;;;23.56;40.72;101373.28;5056867;28;46140;-67
2021/08/25 09:08:34;;;;;;;;;7.33;7.33;;;;;23.61;40.77;101368.59;5073276;28;45601;-67
2021/08/25 09:11:05;;;;;;;;;9.00;8.00;;;;;23.68;40.83;101372.03;5077463;28;45493;-67
2021/08/25 09:13:48;;;;;;;;;8.67;7.33;;;;;23.75;40.66;101369.09;5047411;28;45493;-67
2021/08/25 09:16:34;;;;;;;;;8.00;7.33;;;;;23.80;40.54;101357.22;5076969;28;45692;-68
2021/08/25 09:19:04;;;;;;;;;12.00;10.00;;;;;23.87;40.25;101369.66;5076941;28;45690;-66
2021/08/25 09:21:36;;;;;;;;;9.33;9.33;;;;;23.91;40.12;101363.19;5076652;28;45903;-67
2021/08/25 09:24:05;;;;;;;;;7.67;7.33;;;;;23.98;40.27;101355.75;5074109;28;45475;-66
2021/08/25 09:26:31;;;;;;;;;6.67;6.33;;;;;24.05;40.06;101350.06;5077116;28;46164;-67
2021/08/25 09:29:22;;;;;;;;;8.67;7.67;;;;;24.11;40.24;101351.69;5074787;28;45369;-68
2021/08/25 09:31:52;;;;;;;;;8.33;8.33;;;;;24.12;39.68;101357.09;5076321;28;45870;-68
2021/08/25 09:34:28;;;;;;;;;10.33;7.67;;;;;24.06;39.90;101354.56;5077922;28;45669;-67
2021/08/25 09:37:24;;;;;;;;;8.33;8.33;;;;;23.95;40.42;101360.31;5077481;28;46490;-68
2021/08/25 09:39:51;;;;;;;;;8.67;8.67;;;;;23.94;40.33;101358.56;5076865;28;45400;-68
2021/08/25 09:42:19;;;;;;;;;10.67;9.67;;;;;23.88;40.73;101355.16;5073562;28;45489;-68
2021/08/25 09:44:46;;;;;;;;;7.33;7.33;;;;;23.89;40.27;101349.66;5076844;28;45449;-69
2021/08/25 09:47:12;;;;;;;;;9.00;7.67;;;;;23.95;40.38;101348.56;5041601;28;45736;-70
2021/08/25 09:49:39;;;;;;;;;8.00;8.00;;;;;23.91;40.22;101355.06;5076675;28;45778;-69
2021/08/25 09:52:06;;;;;;;;;10.00;7.33;;;;;23.86;39.66;101348.88;5076048;28;45622;-70
2021/08/25 09:54:32;;;;;;;;;7.67;7.67;;;;;23.69;40.01;101328.56;5076960;28;45469;-70
2021/08/25 09:56:57;;;;;;;;;10.00;9.00;;;;;23.66;39.97;101336.78;5076306;28;46000;-68
2021/08/25 09:59:23;;;;;;;;;7.00;7.00;;;;;23.67;40.31;101340.38;5076039;28;45788;-69
2021/08/25 10:01:52;;;;;;;;;7.33;7.33;;;;;23.72;40.20;101343.84;5058036;28;45558;-69
2021/08/25 10:04:19;;;;;;;;;5.67;5.67;;;;;23.77;39.91;101336.47;5077073;28;45680;-69
2021/08/25 10:06:49;;;;;;;;;7.67;7.67;;;;;23.84;40.08;101337.19;5076543;28;45663;-71
2021/08/25 10:09:16;;;;;;;;;8.33;7.33;;;;;23.92;40.43;101335.09;5058114;28;45960;-70
2021/08/25 10:11:53;;;;;;;;;8.00;8.00;;;;;24.02;40.01;101333.00;5077033;28;45468;-69
2021/08/25 10:14:19;;;;;;;;;8.00;8.00;;;;;24.12;39.84;101331.75;5076685;28;45414;-69
2021/08/25 10:16:46;;;;;;;;;10.00;8.00;;;;;24.19;39.80;101321.56;5076067;28;46231;-69
2021/08/25 10:19:38;;;;;;;;;6.33;5.33;;;;;24.23;38.83;101324.09;5076311;28;45592;-71
2021/08/25 10:22:10;;;;;;;;;11.33;8.67;;;;;24.30;38.56;101322.97;5057482;28;45447;-70
2021/08/25 10:24:54;;;;;;;;;7.00;7.00;;;;;24.36;38.24;101311.00;5057862;28;45675;-68
2021/08/25 10:27:21;;;;;;;;;10.00;9.67;;;;;24.39;38.40;101319.03;5075712;28;45517;-71
2021/08/25 10:30:06;;;;;;;;;7.67;7.67;;;;;24.37;38.01;101310.06;5075586;28;45419;-70
2021/08/25 10:32:36;;;;;;;;;9.33;9.33;;;;;24.31;37.44;101310.25;5054792;28;45402;-71
2021/08/25 10:35:20;;;;;;;;;13.00;10.00;;;;;24.17;37.83;101306.16;5066630;28;45462;-69
2021/08/25 10:37:47;;;;;;;;;8.67;8.67;;;;;24.03;37.87;101297.59;5071250;28;45449;-70
2021/08/25 10:40:16;;;;;;;;;12.00;10.67;;;;;23.94;37.99;101306.06;5069363;28;45850;-68
2021/08/25 10:42:45;;;;;;;;;9.00;7.00;;;;;23.89;38.00;101303.47;5073703;28;45422;-70
2021/08/25 10:45:10;;;;;;;;;9.00;8.00;;;;;23.87;38.23;101302.63;5074589;27;45477;-69
2021/08/25 10:47:57;;;;;;;;;10.00;7.33;;;;;23.83;38.59;101295.53;5055896;28;46683;-69
2021/08/25 10:50:22;;;;;;;;;8.67;8.67;;;;;23.78;38.41;101299.34;5074845;28;45572;-69
2021/08/25 10:52:49;;;;;;;;;9.33;9.33;;;;;23.83;38.37;101292.81;5075470;28;45556;-68
2021/08/25 10:55:14;;;;;;;;;9.00;9.00;;;;;23.91;38.89;101300.72;5060956;28;45594;-70
2021/08/25 10:57:44;;;;;;;;;10.67;8.67;;;;;24.04;39.11;101291.22;5061932;28;45548;-75
2021/08/25 11:00:12;;;;;;;;;17.67;15.00;;;;;24.13;39.83;101279.16;5078915;28;45377;-72
2021/08/25 11:02:40;;;;;;;;;10.00;10.00;;;;;24.36;39.68;101286.53;5078645;28;45420;-74
2021/08/25 11:05:06;;;;;;;;;9.00;8.67;;;;;24.49;39.66;101273.41;5056331;28;45407;-74
2021/08/25 11:07:41;;;;;;;;;8.67;7.67;;;;;24.72;39.13;101273.50;5057973;28;47657;-73
2021/08/25 11:10:07;;;;;;;;;9.00;8.50;;;;;24.86;39.36;101274.81;5075219;28;45269;-76
2021/08/25 11:12:33;;;;;;;;;7.33;6.00;;;;;25.01;38.71;101270.66;5075577;28;45463;-74
2021/08/25 11:14:58;;;;;;;;;6.67;6.00;;;;;25.12;38.85;101252.94;5073351;28;45556;-74
2021/08/25 11:17:32;;;;;;;;;9.33;9.33;;;;;25.25;39.11;101272.47;5073167;28;45392;-73
2021/08/25 11:20:06;;;;;;;;;6.00;6.00;;;;;25.41;38.24;101272.75;5073317;28;45461;-73
2021/08/25 11:22:35;;;;;;;;;15.33;13.67;;;;;25.52;39.17;101269.59;5055619;28;45422;-72
2021/08/25 11:25:06;;;;;;;;;9.67;9.67;;;;;25.62;39.10;101257.38;5073627;28;45524;-74